Time;durP1;ratioP1;P1;durP2;ratioP2;P2;SDS_P1;SDS_P2;PMS_P1;PMS_P2;Temp;Humidity;BMP_temperature;BMP_pressure;BME280_temperature;BME280_humidity;BME280_pressure;Samples;Min_cycle;Max_cycle;Signal;HPM_P1;HPM_P2
2023/10/13 00:02:11;;;;;;;9.80;2.70;;;;;;;9.37;81.44;99618.89;78120;1301;3051542;-64
2023/10/13 00:04:38;;;;;;;8.00;2.70;;;;;;;9.30;81.86;99611.96;79360;1301;3012922;-68
2023/10/13 00:07:08;;;;;;;7.80;2.70;;;;;;;9.68;80.84;99610.42;79416;1298;3012661;-70
2023/10/13 00:09:40;;;;;;;7.10;2.90;;;;;;;10.01;78.89;99612.10;77975;1301;3049518;-64
2023/10/13 00:12:10;;;;;;;10.40;3.30;;;;;;;9.90;78.70;99612.90;79350;1295;3013204;-65
2023/10/13 00:14:37;;;;;;;12.10;4.80;;;;;;;9.72;79.55;99611.80;77963;1300;3049207;-65
2023/10/13 00:17:05;;;;;;;14.40;5.50;;;;;;;9.68;79.58;99601.88;79368;1301;3011542;-67
2023/10/13 00:19:37;;;;;;;18.60;5.90;;;;;;;9.45;80.47;99595.23;79623;1298;3011883;-65
2023/10/13 00:22:09;;;;;;;17.90;6.00;;;;;;;9.23;81.79;99597.09;78017;1298;3051444;-71
2023/10/13 00:24:42;;;;;;;22.80;6.00;;;;;;;9.15;82.50;99605.38;79427;1301;3011912;-64
2023/10/13 00:32:53;;;;;;;20.50;7.00;;;;;;;9.75;79.47;99601.64;78180;1301;3050086;-63
2023/10/13 00:35:28;;;;;;;65.30;17.50;;;;;;;9.39;80.69;99604.14;79504;1299;3014024;-70
2023/10/13 00:37:57;;;;;;;62.30;19.70;;;;;;;9.23;81.66;99603.71;78104;1300;3052435;-63
2023/10/13 00:40:42;;;;;;;51.70;16.90;;;;;;;9.06;82.38;99598.36;79404;1300;3013573;-69
2023/10/13 00:48:42;;;;;;;17.90;6.00;;;;;;;9.61;80.06;99595.58;78237;1296;3049547;-69
2023/10/13 00:54:06;;;;;;;8.60;3.10;;;;;;;9.26;81.23;99595.70;78101;1301;3051777;-70
2023/10/13 00:56:39;;;;;;;11.10;3.00;;;;;;;9.05;82.24;99592.81;78046;1301;3052000;-66
2023/10/13 00:59:10;;;;;;;13.10;4.90;;;;;;;8.94;82.90;99585.32;78793;1301;3011688;-68
2023/10/13 01:01:36;;;;;;;20.60;7.40;;;;;;;8.87;83.71;99587.97;79247;1301;3015749;-70
2023/10/13 01:04:04;;;;;;;45.10;12.00;;;;;;;9.29;82.63;99595.02;79294;1301;3013012;-67
2023/10/13 01:06:33;;;;;;;69.90;16.40;;;;;;;9.41;81.97;99583.39;78101;1301;3056542;-69
2023/10/13 01:09:16;;;;;;;53.90;13.70;;;;;;;9.53;81.05;99588.84;79475;1301;3013345;-64
2023/10/13 01:11:44;;;;;;;60.50;16.20;;;;;;;9.34;81.72;99590.75;78151;1301;3049087;-64
2023/10/13 01:14:12;;;;;;;50.80;14.60;;;;;;;9.14;82.61;99589.35;79243;1301;3014520;-67
2023/10/13 01:16:43;;;;;;;44.40;13.30;;;;;;;8.93;83.96;99590.98;79232;1301;3011677;-64
2023/10/13 01:19:18;;;;;;;40.60;11.80;;;;;;;8.86;84.67;99590.29;78389;1301;3051534;-68
2023/10/13 01:21:44;;;;;;;79.60;24.90;;;;;;;9.32;83.75;99579.67;79369;1295;3011999;-65
2023/10/13 01:24:22;;;;;;;89.00;25.40;;;;;;;9.55;81.77;99588.58;77988;1301;3049332;-68
2023/10/13 01:26:53;;;;;;;78.50;21.30;;;;;;;9.52;81.60;99578.79;78075;1301;3053305;-65
2023/10/13 01:29:28;;;;;;;66.10;18.30;;;;;;;9.17;82.95;99575.92;79232;1295;3012908;-67
2023/10/13 01:31:56;;;;;;;46.90;14.70;;;;;;;8.98;84.18;99579.69;78126;1300;3051953;-64
2023/10/13 01:34:23;;;;;;;55.60;16.70;;;;;;;8.87;84.96;99577.98;79578;1301;3018784;-68
2023/10/13 01:36:51;;;;;;;43.60;15.70;;;;;;;8.78;85.74;99576.04;79332;1301;3011625;-68
2023/10/13 01:39:20;;;;;;;36.30;12.60;;;;;;;9.15;84.65;99568.30;78268;1301;3056112;-65
2023/10/13 01:41:55;;;;;;;28.10;10.00;;;;;;;9.59;82.45;99575.42;79544;1295;3012056;-68
2023/10/13 01:44:23;;;;;;;31.70;11.20;;;;;;;9.48;82.50;99575.14;78191;1301;3053601;-70
2023/10/13 01:46:51;;;;;;;43.40;14.10;;;;;;;9.27;83.42;99570.52;79377;1301;3014631;-69
2023/10/13 01:49:17;;;;;;;48.90;17.60;;;;;;;9.28;83.31;99570.48;79334;1301;3013129;-67
2023/10/13 01:51:47;;;;;;;56.60;17.70;;;;;;;9.01;84.84;99568.88;78133;1295;3070001;-66
2023/10/13 01:54:15;;;;;;;40.20;14.30;;;;;;;9.00;85.60;99570.37;79323;1295;3013242;-64
2023/10/13 01:56:44;;;;;;;28.20;11.00;;;;;;;9.54;83.81;99575.14;78799;1301;3013040;-66
2023/10/13 01:59:11;;;;;;;19.50;8.10;;;;;;;9.67;82.82;99573.23;79429;1301;3019074;-67
2023/10/13 02:01:39;;;;;;;15.20;5.90;;;;;;;9.57;82.96;99571.83;79443;1295;3013684;-71
2023/10/13 02:04:07;;;;;;;12.70;5.40;;;;;;;9.69;82.43;99574.00;78203;1303;3051000;-62
2023/10/13 02:06:36;;;;;;;10.30;5.40;;;;;;;9.46;83.00;99584.00;79400;1301;3013218;-61
2023/10/13 02:09:12;;;;;;;15.90;4.70;;;;;;;9.11;85.11;99588.63;79256;1298;3011791;-67
2023/10/13 02:11:41;;;;;;;24.30;8.80;;;;;;;9.57;84.24;99583.57;78150;1295;3056987;-66
2023/10/13 02:14:11;;;;;;;27.60;10.40;;;;;;;9.87;82.55;99589.11;79424;1295;3013167;-67
2023/10/13 02:16:39;;;;;;;29.20;12.20;;;;;;;9.73;82.31;99582.52;78017;1298;3026586;-62
2023/10/13 02:19:08;;;;;;;24.40;9.90;;;;;;;9.56;83.17;99576.30;79279;1301;3018558;-65
2023/10/13 02:21:39;;;;;;;26.10;8.60;;;;;;;9.58;82.94;99585.27;79393;1301;3012194;-69
2023/10/13 02:24:12;;;;;;;17.00;6.40;;;;;;;9.36;83.77;99593.23;78152;1301;3069939;-62
2023/10/13 02:26:40;;;;;;;13.50;4.90;;;;;;;9.39;84.46;99595.23;79350;1301;3013613;-66
2023/10/13 02:29:08;;;;;;;11.50;4.10;;;;;;;9.74;83.16;99590.18;78058;1301;3056994;-63
2023/10/13 02:31:37;;;;;;;6.20;3.10;;;;;;;9.89;82.25;99587.74;79215;1295;3013668;-68
2023/10/13 02:34:08;;;;;;;6.70;3.00;;;;;;;9.92;81.61;99577.13;79333;1301;3012961;-66
2023/10/13 02:36:36;;;;;;;13.40;5.00;;;;;;;9.56;83.14;99570.34;78042;1300;3052513;-66
2023/10/13 02:39:07;;;;;;;12.60;5.40;;;;;;;9.43;84.02;99575.27;79408;1301;3012834;-64
2023/10/13 02:41:38;;;;;;;14.20;5.60;;;;;;;9.34;84.85;99585.67;78189;1300;3053214;-66
2023/10/13 02:44:06;;;;;;;15.10;5.40;;;;;;;9.78;83.37;99584.67;79316;1302;3013531;-69
2023/10/13 02:46:36;;;;;;;14.40;5.30;;;;;;;9.98;81.92;99572.73;75192;1296;6352198;-64
2023/10/13 02:49:10;;;;;;;18.10;7.70;;;;;;;9.87;82.35;99563.89;79475;1296;3012041;-66
2023/10/13 02:51:42;;;;;;;17.00;7.20;;;;;;;9.67;83.11;99560.66;78141;1301;3049124;-63
2023/10/13 02:54:17;;;;;;;28.80;11.10;;;;;;;9.54;83.80;99564.34;79282;1301;3011683;-67
2023/10/13 02:57:05;;;;;;;30.70;10.50;;;;;;;9.46;84.86;99567.91;78105;1301;3054952;-66
2023/10/13 02:59:48;;;;;;;23.40;8.10;;;;;;;9.85;83.34;99549.86;78353;1301;3068497;-64
2023/10/13 03:02:29;;;;;;;26.00;8.10;;;;;;;9.74;83.34;99558.36;78127;1301;3052400;-65
2023/10/13 03:05:08;;;;;;;16.90;6.30;;;;;;;9.66;83.89;99555.44;78108;1301;3057655;-68
2023/10/13 03:07:36;;;;;;;19.70;5.90;;;;;;;9.60;84.17;99557.00;78040;1301;3048853;-69
2023/10/13 03:10:14;;;;;;;26.00;8.30;;;;;;;9.47;84.78;99557.88;79303;1298;3013127;-66
2023/10/13 03:12:48;;;;;;;37.00;12.00;;;;;;;9.52;85.02;99551.84;78075;1301;3053084;-69
2023/10/13 03:15:18;;;;;;;64.70;18.00;;;;;;;9.91;83.57;99549.86;79361;1296;3012977;-69
2023/10/13 03:17:46;;;;;;;57.10;17.70;;;;;;;10.25;81.80;99543.40;78200;1302;3068365;-69
2023/10/13 03:20:22;;;;;;;40.00;13.50;;;;;;;10.18;81.34;99534.66;79372;1296;3013066;-69
2023/10/13 03:22:52;;;;;;;34.30;10.40;;;;;;;9.81;83.04;99536.45;78169;1300;3050538;-67
2023/10/13 03:30:30;;;;;;;20.20;6.30;;;;;;;9.54;85.47;99545.41;79402;1301;3013710;-63
2023/10/13 03:32:58;;;;;;;13.40;5.50;;;;;;;10.03;84.20;99549.05;78174;1295;3068323;-63
2023/10/13 03:35:24;;;;;;;11.30;4.00;;;;;;;10.32;82.47;99547.70;79327;1301;3013233;-64
2023/10/13 03:37:51;;;;;;;8.80;3.10;;;;;;;10.34;81.73;99544.80;79441;1296;3014212;-64
2023/10/13 03:43:04;;;;;;;8.60;3.60;;;;;;;9.99;83.77;99543.11;79459;1301;3012828;-68
2023/10/13 03:45:47;;;;;;;5.60;2.00;;;;;;;9.79;84.85;99539.51;78078;1300;3053294;-69
2023/10/13 03:51:03;;;;;;;4.10;2.00;;;;;;;10.12;84.77;99537.84;78094;1302;3051254;-70
2023/10/13 03:53:34;;;;;;;7.50;2.70;;;;;;;10.37;83.72;99541.64;78090;1301;3056975;-70
2023/10/13 03:56:08;;;;;;;8.50;2.80;;;;;;;10.40;83.45;99539.91;79430;1295;3011412;-68
2023/10/13 03:58:42;;;;;;;4.80;2.40;;;;;;;10.19;84.36;99535.50;78107;1309;3053663;-62
2023/10/13 04:01:15;;;;;;;7.50;2.40;;;;;;;10.02;85.39;99545.73;78998;1298;3011968;-68
2023/10/13 04:03:57;;;;;;;8.50;2.50;;;;;;;9.97;86.27;99549.36;79462;1295;3011512;-69
2023/10/13 04:17:26;;;;;;;7.00;2.30;;;;;;;10.44;84.32;99555.80;78233;1295;3057701;-61
2023/10/13 04:25:35;;;;;;;6.30;2.20;;;;;;;10.91;81.76;99567.70;78180;1298;3053161;-66
2023/10/13 04:28:34;;;;;;;7.30;2.50;;;;;;;10.78;82.60;99576.20;78225;1301;3053841;-67
2023/10/13 04:31:12;;;;;;;5.90;2.20;;;;;;;10.66;83.07;99577.30;78026;1296;3069436;-67
2023/10/13 04:33:52;;;;;;;6.60;2.30;;;;;;;10.52;83.96;99573.86;78098;1300;3051830;-66
2023/10/13 04:41:36;;;;;;;9.80;3.20;;;;;;;11.18;81.98;99590.84;78018;1295;3053311;-63
2023/10/13 04:44:05;;;;;;;7.00;2.80;;;;;;;11.00;82.56;99582.08;78334;1301;3050468;-70
2023/10/13 04:49:35;;;;;;;8.40;3.10;;;;;;;10.66;84.18;99580.41;78104;1300;3069413;-66
2023/10/13 04:54:54;;;;;;;5.80;2.70;;;;;;;11.21;83.75;99580.64;79293;1301;3011629;-63
2023/10/13 05:05:45;;;;;;;10.70;3.10;;;;;;;10.97;82.81;99612.73;78015;1309;3054186;-62
2023/10/13 05:44:33;;;;;;;8.60;2.40;;;;;;;11.02;84.29;99610.73;78011;1301;3069639;-66
2023/10/13 05:44:55;;;;;;;7.70;2.90;;;;;;;11.80;82.42;99607.15;78150;1301;3053056;-71
2023/10/13 06:28:50;;;;;;;9.90;2.50;;;;;;;12.20;82.31;99633.91;78178;1301;3051890;-68
2023/10/13 06:31:22;;;;;;;8.60;2.30;;;;;;;12.15;82.93;99644.48;79459;1298;3013068;-65
2023/10/13 06:33:50;;;;;;;5.40;2.20;;;;;;;12.62;82.00;99652.09;78140;1301;3051784;-68
2023/10/13 06:36:17;;;;;;;8.20;3.00;;;;;;;12.86;80.35;99655.63;79480;1295;3018606;-66
2023/10/13 06:38:44;;;;;;;7.10;2.70;;;;;;;12.95;80.13;99656.10;79257;1295;3012328;-68
2023/10/13 06:41:30;;;;;;;7.60;2.80;;;;;;;12.84;80.53;99659.98;78186;1301;3050150;-69
2023/10/13 06:44:01;;;;;;;12.10;4.60;;;;;;;12.72;81.01;99657.27;78131;1296;3053125;-66
2023/10/13 06:46:28;;;;;;;8.80;3.70;;;;;;;12.67;81.27;99663.78;79591;1298;3013582;-66
2023/10/13 06:48:59;;;;;;;7.60;3.90;;;;;;;12.51;82.91;99657.09;78967;1300;3011808;-72
2023/10/13 06:51:30;;;;;;;10.10;3.20;;;;;;;13.05;82.15;99653.48;79461;1300;3011496;-71
2023/10/13 06:54:03;;;;;;;16.70;4.10;;;;;;;13.41;79.71;99647.37;78150;1301;3069543;-71
2023/10/13 06:56:30;;;;;;;6.70;3.20;;;;;;;13.51;79.00;99650.36;79357;1298;3011490;-64
2023/10/13 06:59:04;;;;;;;10.10;3.60;;;;;;;13.19;80.17;99639.02;78141;1295;3055935;-61
2023/10/13 07:01:38;;;;;;;12.20;4.50;;;;;;;13.18;80.02;99652.42;79430;1299;3011608;-65
2023/10/13 07:04:15;;;;;;;8.20;3.60;;;;;;;13.12;80.27;99652.30;78183;1298;3053927;-65
2023/10/13 07:06:50;;;;;;;7.90;2.70;;;;;;;12.91;81.83;99664.60;78530;1301;3050033;-64
2023/10/13 07:12:06;;;;;;;9.50;3.80;;;;;;;13.97;78.09;99664.73;78469;1301;3051949;-70
2023/10/13 07:14:33;;;;;;;7.10;3.70;;;;;;;14.03;77.40;99663.41;79596;1295;3013420;-75
2023/10/13 07:17:04;;;;;;;9.40;3.70;;;;;;;14.07;76.85;99667.17;78264;1295;3026189;-65
2023/10/13 07:19:31;;;;;;;7.00;3.60;;;;;;;13.94;77.51;99651.71;79648;1296;3011886;-72
2023/10/13 07:22:19;;;;;;;9.70;3.80;;;;;;;13.63;78.85;99656.55;78828;1300;3011425;-72
2023/10/13 07:24:49;;;;;;;7.30;3.40;;;;;;;13.47;79.67;99662.98;77965;1296;3052952;-67
2023/10/13 07:27:25;;;;;;;10.20;2.90;;;;;;;13.48;79.98;99662.38;79364;1300;3013381;-67
2023/10/13 07:30:05;;;;;;;10.40;2.70;;;;;;;14.07;78.59;99650.78;78150;1300;3052915;-73
2023/10/13 07:32:34;;;;;;;11.30;3.00;;;;;;;14.49;76.69;99652.70;78172;1301;3052980;-73
2023/10/13 07:35:05;;;;;;;8.60;3.00;;;;;;;14.32;77.31;99648.98;79185;1298;3012984;-64
2023/10/13 07:37:33;;;;;;;13.80;3.00;;;;;;;14.32;77.37;99644.77;78223;1297;3056359;-63
2023/10/13 07:40:00;;;;;;;10.50;3.90;;;;;;;14.37;76.92;99650.77;79343;1297;3013231;-67
2023/10/13 07:42:38;;;;;;;11.70;4.90;;;;;;;14.13;77.91;99651.23;79313;1298;3011564;-64
2023/10/13 07:45:11;;;;;;;9.20;4.00;;;;;;;13.92;79.63;99646.56;78072;1301;3053307;-64
2023/10/13 07:47:39;;;;;;;12.80;4.30;;;;;;;13.92;80.23;99651.05;79449;1297;3011967;-67
2023/10/13 07:50:07;;;;;;;14.30;4.60;;;;;;;14.53;79.15;99654.18;78106;1300;3068930;-66
2023/10/13 07:52:36;;;;;;;10.00;4.90;;;;;;;15.00;76.68;99663.38;79452;1298;3012973;-64
2023/10/13 07:55:17;;;;;;;13.80;4.80;;;;;;;14.89;76.54;99668.26;79435;1297;3011695;-64
2023/10/13 07:57:55;;;;;;;14.00;5.50;;;;;;;14.82;76.82;99672.67;78273;1303;3052866;-66
2023/10/13 08:00:46;;;;;;;10.50;5.00;;;;;;;14.57;77.82;99669.93;77987;1300;3049981;-67
2023/10/13 08:08:40;;;;;;;14.90;3.80;;;;;;;14.87;77.22;99669.42;78008;1298;3071296;-64
2023/10/13 08:11:11;;;;;;;11.40;4.30;;;;;;;15.52;74.70;99667.73;78459;1300;3051739;-69
2023/10/13 08:13:46;;;;;;;8.90;3.60;;;;;;;15.33;74.67;99664.95;79440;1298;3012843;-67
2023/10/13 08:16:23;;;;;;;16.10;4.20;;;;;;;15.16;75.31;99666.71;78286;1297;3050607;-69
2023/10/13 08:18:51;;;;;;;11.40;5.10;;;;;;;14.98;75.93;99665.13;78173;1298;3053303;-67
2023/10/13 08:21:24;;;;;;;13.40;5.10;;;;;;;14.69;76.70;99662.55;79500;1300;3013023;-68
2023/10/13 08:26:56;;;;;;;10.70;3.30;;;;;;;14.57;77.25;99670.48;79371;1298;3011982;-68
2023/10/13 08:34:39;;;;;;;14.50;4.40;;;;;;;15.33;73.88;99654.17;78084;1300;3050243;-65
2023/10/13 08:50:52;;;;;;;11.60;4.70;;;;;;;15.45;74.38;99688.66;78036;1301;3051572;-66
2023/10/13 08:59:06;;;;;;;8.90;3.80;;;;;;;15.75;71.60;99684.43;78061;1300;3053609;-68
2023/10/13 09:01:45;;;;;;;15.90;4.40;;;;;;;15.50;72.49;99671.59;78264;1301;3050698;-61
2023/10/13 09:06:47;;;;;;;7.90;4.30;;;;;;;15.18;73.16;99656.90;79461;1300;3011898;-63
2023/10/13 09:09:27;;;;;;;12.50;4.20;;;;;;;15.13;73.78;99647.09;78074;1298;3067005;-65
2023/10/13 09:12:09;;;;;;;8.20;5.00;;;;;;;15.02;74.20;99624.45;78190;1301;3051132;-67
2023/10/13 09:14:42;;;;;;;36.00;15.60;;;;;;;14.94;75.70;99608.83;78252;1300;3056824;-65
2023/10/13 09:19:48;;;;;;;27.80;5.80;;;;;;;15.71;72.03;99617.46;78150;1298;3053065;-68
2023/10/13 09:22:35;;;;;;;19.20;7.10;;;;;;;15.85;72.07;99619.41;79449;1298;3013555;-67
2023/10/13 09:25:13;;;;;;;20.60;8.30;;;;;;;15.62;72.59;99618.71;78101;1300;3053167;-67
2023/10/13 09:27:41;;;;;;;15.00;6.00;;;;;;;15.38;73.43;99625.75;78124;1300;3054125;-71
2023/10/13 09:30:31;;;;;;;17.00;6.10;;;;;;;15.28;73.66;99625.25;79498;1295;3011830;-73
2023/10/13 09:33:04;;;;;;;13.30;5.00;;;;;;;15.14;73.79;99627.91;78185;1296;3057178;-62
2023/10/13 09:35:33;;;;;;;18.80;5.80;;;;;;;15.09;73.83;99635.34;78073;1295;3048428;-70
2023/10/13 09:38:03;;;;;;;16.60;5.60;;;;;;;15.14;74.09;99636.38;79367;1295;3013270;-64
2023/10/13 09:43:07;;;;;;;8.20;3.70;;;;;;;15.15;73.27;99640.86;79554;1298;3012932;-62
2023/10/13 09:48:40;;;;;;;10.70;4.10;;;;;;;16.14;69.53;99644.96;77968;1300;3068086;-66
2023/10/13 09:51:13;;;;;;;16.90;4.80;;;;;;;16.20;69.03;99640.08;79401;1295;3011660;-71
2023/10/13 09:53:44;;;;;;;12.40;4.60;;;;;;;16.06;69.34;99637.52;78268;1300;3057477;-65
2023/10/13 09:56:14;;;;;;;7.50;4.00;;;;;;;15.78;69.59;99636.23;79557;1300;3011604;-71
2023/10/13 09:59:14;;;;;;;16.10;4.70;;;;;;;15.66;70.11;99632.89;78139;1299;3052932;-69
2023/10/13 10:02:08;;;;;;;22.90;9.80;;;;;;;15.51;70.50;99632.97;78148;1301;3050930;-67
2023/10/13 10:04:40;;;;;;;17.40;4.30;;;;;;;15.42;70.86;99636.38;78068;1301;3053185;-67
2023/10/13 10:07:08;;;;;;;13.00;4.20;;;;;;;15.25;71.60;99642.40;79391;1300;3012785;-64
2023/10/13 10:09:36;;;;;;;14.90;4.70;;;;;;;15.16;72.18;99647.02;78348;1295;3070345;-69
2023/10/13 10:12:38;;;;;;;13.80;3.70;;;;;;;15.18;72.58;99641.77;79488;1295;3012858;-65
2023/10/13 10:15:20;;;;;;;13.90;3.80;;;;;;;15.13;73.29;99637.73;78103;1301;3049552;-60
2023/10/13 10:17:49;;;;;;;11.70;3.60;;;;;;;15.17;72.83;99638.13;78126;1299;3054028;-68
2023/10/13 10:20:32;;;;;;;5.50;2.60;;;;;;;15.58;71.35;99626.95;79388;1300;3012599;-65
2023/10/13 10:23:00;;;;;;;7.90;3.00;;;;;;;16.06;70.02;99621.95;78465;1301;3053320;-68
2023/10/13 10:25:34;;;;;;;12.50;3.80;;;;;;;16.10;69.50;99629.38;79473;1295;3012454;-63
2023/10/13 10:28:06;;;;;;;7.40;3.70;;;;;;;15.89;70.53;99631.98;78184;1301;3056367;-68
2023/10/13 10:30:38;;;;;;;12.20;4.70;;;;;;;15.73;70.52;99626.89;79433;1298;3011920;-64
2023/10/13 10:33:12;;;;;;;12.90;4.70;;;;;;;15.68;70.96;99633.11;78316;1295;3052140;-72
2023/10/13 10:35:42;;;;;;;13.00;4.70;;;;;;;15.58;72.23;99641.48;79340;1299;3011909;-66
2023/10/13 10:40:58;;;;;;;12.90;4.70;;;;;;;15.34;73.38;99651.23;78090;1296;3054546;-69
2023/10/13 10:43:41;;;;;;;9.70;3.50;;;;;;;15.32;73.65;99651.77;77987;1295;3068458;-70
2023/10/13 10:46:11;;;;;;;7.70;3.50;;;;;;;15.78;71.91;99644.89;78102;1300;3051063;-67
2023/10/13 10:48:43;;;;;;;8.10;3.50;;;;;;;16.17;70.33;99641.41;79293;1295;3013258;-65
2023/10/13 10:53:46;;;;;;;12.10;4.20;;;;;;;16.15;70.35;99644.55;79332;1301;3012141;-67
2023/10/13 10:56:22;;;;;;;12.10;4.60;;;;;;;16.12;70.36;99646.38;78136;1297;3052816;-68
2023/10/13 10:58:56;;;;;;;8.60;3.80;;;;;;;15.90;71.15;99649.89;78381;1295;3052327;-66
2023/10/13 11:01:38;;;;;;;10.60;4.20;;;;;;;15.74;71.78;99644.84;78629;1300;3013027;-63
2023/10/13 11:04:14;;;;;;;15.40;4.00;;;;;;;15.60;72.28;99641.98;78238;1298;3069144;-65
2023/10/13 11:06:46;;;;;;;13.40;4.40;;;;;;;15.40;73.45;99644.95;78203;1301;3053309;-65
2023/10/13 11:09:18;;;;;;;9.00;3.50;;;;;;;15.32;74.62;99648.27;79294;1295;3011838;-68
2023/10/13 11:11:46;;;;;;;13.00;5.20;;;;;;;15.92;72.80;99652.07;79398;1300;3049982;-66
2023/10/13 11:14:28;;;;;;;9.80;3.90;;;;;;;16.50;70.47;99665.77;79348;1298;3019563;-65
2023/10/13 11:17:00;;;;;;;12.60;4.60;;;;;;;16.57;69.34;99667.11;78076;1298;3052916;-70
2023/10/13 11:19:40;;;;;;;19.20;4.80;;;;;;;16.48;69.30;99670.02;79341;1301;3011650;-69
2023/10/13 11:25:14;;;;;;;12.70;5.30;;;;;;;16.29;68.94;99669.38;78089;1301;3051797;-71
2023/10/13 11:30:25;;;;;;;14.10;4.10;;;;;;;16.15;68.94;99665.91;78107;1300;3048791;-60
2023/10/13 11:33:03;;;;;;;13.00;4.70;;;;;;;16.09;69.07;99671.36;79387;1295;3011777;-68
2023/10/13 11:38:29;;;;;;;11.90;4.00;;;;;;;15.84;70.25;99679.83;78310;1301;3052382;-65
2023/10/13 11:43:27;;;;;;;13.30;4.60;;;;;;;15.69;70.89;99677.66;79248;1295;3011647;-68
2023/10/13 11:48:41;;;;;;;9.10;3.60;;;;;;;15.84;70.51;99684.11;78102;1301;3056787;-69
2023/10/13 11:51:18;;;;;;;13.30;3.70;;;;;;;16.52;69.43;99688.75;79363;1300;3012859;-66
2023/10/13 11:53:51;;;;;;;12.30;3.80;;;;;;;17.19;67.11;99685.02;78210;1296;3053543;-68
2023/10/13 11:56:21;;;;;;;12.50;4.10;;;;;;;17.11;66.46;99692.27;79211;1299;3011628;-68
2023/10/13 11:58:49;;;;;;;17.30;3.80;;;;;;;16.98;66.77;99690.28;78066;1311;3051080;-68
2023/10/13 12:06:35;;;;;;;13.30;4.00;;;;;;;16.54;67.65;99697.04;78090;1300;3056836;-68
2023/10/13 12:09:14;;;;;;;6.80;3.70;;;;;;;16.42;67.92;99699.64;79367;1295;3011676;-66
2023/10/13 12:11:42;;;;;;;11.60;4.20;;;;;;;16.29;68.12;99693.27;78174;1300;3053405;-66
2023/10/13 12:14:16;;;;;;;9.60;4.10;;;;;;;16.15;68.91;99686.78;79232;1298;3013887;-70
2023/10/13 12:16:51;;;;;;;11.70;4.70;;;;;;;16.12;69.14;99684.90;78067;1301;3053275;-66
2023/10/13 12:19:23;;;;;;;8.30;4.00;;;;;;;16.07;69.53;99685.11;78736;1297;3012331;-65
2023/10/13 12:21:54;;;;;;;20.20;4.70;;;;;;;16.08;69.19;99687.33;79380;1298;3012366;-66
2023/10/13 12:27:18;;;;;;;21.00;5.00;;;;;;;15.93;70.04;99689.57;78164;1295;3056125;-66
2023/10/13 12:29:47;;;;;;;9.00;4.60;;;;;;;15.92;69.94;99689.50;78017;1299;3049294;-69
2023/10/13 12:32:14;;;;;;;10.50;3.70;;;;;;;15.87;70.80;99688.63;79436;1301;3013654;-64
2023/10/13 12:48:56;;;;;;;19.00;6.20;;;;;;;16.79;67.27;99689.15;78179;1301;3049508;-62
2023/10/13 12:56:47;;;;;;;14.20;5.10;;;;;;;16.15;70.00;99698.98;78001;1300;3053068;-67
2023/10/13 12:59:14;;;;;;;11.80;5.20;;;;;;;16.14;69.75;99696.93;79491;1301;3013208;-68
2023/10/13 13:01:43;;;;;;;12.90;5.70;;;;;;;16.11;69.98;99689.77;79291;1298;3012328;-69
2023/10/13 13:04:18;;;;;;;15.40;5.20;;;;;;;16.11;70.33;99692.06;78077;1300;3056512;-68
2023/10/13 13:06:48;;;;;;;17.60;5.50;;;;;;;16.08;70.34;99690.99;78799;1295;3013332;-67
2023/10/13 13:09:15;;;;;;;13.20;5.30;;;;;;;16.11;69.77;99688.54;79575;1298;3015342;-66
2023/10/13 13:11:41;;;;;;;13.30;4.80;;;;;;;16.12;70.33;99692.15;79360;1298;3012651;-67
2023/10/13 13:14:09;;;;;;;15.20;4.70;;;;;;;16.69;69.47;99691.45;78186;1301;3051177;-72
2023/10/13 13:16:38;;;;;;;13.10;4.60;;;;;;;17.25;67.89;99692.13;79300;1300;3013729;-66
2023/10/13 13:19:14;;;;;;;15.30;5.20;;;;;;;17.40;67.06;99694.72;79255;1295;3011655;-71
2023/10/13 13:21:41;;;;;;;21.00;6.80;;;;;;;17.30;66.80;99697.00;78031;1300;3056750;-67
2023/10/13 13:24:13;;;;;;;23.40;7.10;;;;;;;17.09;66.93;99694.73;79229;1296;3013446;-74
2023/10/13 13:26:41;;;;;;;15.80;6.60;;;;;;;16.92;67.66;99693.13;78118;1298;3050340;-66
2023/10/13 13:29:09;;;;;;;27.40;12.90;;;;;;;16.80;68.20;99695.69;79509;1301;3021099;-68
2023/10/13 13:31:41;;;;;;;46.80;19.20;;;;;;;16.64;69.61;99691.86;79418;1295;3012117;-65
2023/10/13 13:34:09;;;;;;;30.40;14.80;;;;;;;16.40;71.53;99697.34;78089;1301;3050869;-65
2023/10/13 13:36:36;;;;;;;34.90;15.00;;;;;;;16.25;71.99;99700.80;79313;1295;3013698;-69
2023/10/13 13:39:04;;;;;;;40.20;15.20;;;;;;;16.11;73.06;99698.04;79351;1298;3013433;-71
2023/10/13 13:41:33;;;;;;;24.70;11.90;;;;;;;16.02;73.61;99700.00;78312;1298;3049675;-68
2023/10/13 13:44:13;;;;;;;28.50;13.10;;;;;;;16.48;73.30;99704.66;79506;1300;3013575;-73
2023/10/13 13:46:41;;;;;;;38.90;14.50;;;;;;;16.83;71.89;99707.06;78293;1295;3069993;-74
2023/10/13 13:49:17;;;;;;;38.00;16.30;;;;;;;16.94;71.58;99709.38;79726;1296;3012093;-66
2023/10/13 13:51:51;;;;;;;36.00;19.30;;;;;;;16.80;71.78;99704.52;78244;1295;3049057;-61
2023/10/13 13:54:19;;;;;;;41.50;19.80;;;;;;;16.63;72.43;99707.09;79307;1295;3011742;-66
2023/10/13 13:56:47;;;;;;;42.80;20.20;;;;;;;16.40;73.01;99705.96;78134;1299;3050735;-65
2023/10/13 13:59:19;;;;;;;50.30;19.90;;;;;;;16.17;74.16;99708.54;79519;1301;3012755;-70
2023/10/13 14:01:48;;;;;;;44.60;19.10;;;;;;;15.94;75.21;99705.39;78181;1298;3068518;-70
2023/10/13 14:04:17;;;;;;;45.90;18.40;;;;;;;15.71;76.30;99709.85;79334;1297;3013635;-71
2023/10/13 14:06:46;;;;;;;29.70;13.40;;;;;;;15.60;77.02;99708.73;78890;1301;3011885;-69
2023/10/13 14:09:16;;;;;;;35.50;14.20;;;;;;;16.25;75.38;99712.44;79322;1298;3013307;-69
2023/10/13 14:14:33;;;;;;;36.50;15.80;;;;;;;16.67;73.38;99714.04;78025;1301;3054371;-69
2023/10/13 14:17:06;;;;;;;40.90;17.70;;;;;;;16.56;73.87;99715.31;79518;1301;3011591;-69
2023/10/13 14:19:40;;;;;;;37.40;17.20;;;;;;;16.20;75.20;99715.21;78245;1296;3070869;-67
2023/10/13 14:22:06;;;;;;;40.30;17.00;;;;;;;15.95;76.56;99717.36;79313;1295;3013739;-70
2023/10/13 14:24:35;;;;;;;37.30;18.70;;;;;;;15.86;76.35;99725.13;78288;1295;3056597;-67
2023/10/13 14:27:09;;;;;;;36.10;18.50;;;;;;;15.78;76.45;99733.36;79353;1295;3013567;-66
2023/10/13 14:29:40;;;;;;;31.70;13.30;;;;;;;15.62;77.51;99740.52;78296;1301;3050791;-72
2023/10/13 14:32:12;;;;;;;41.10;14.20;;;;;;;16.17;76.76;99735.77;79389;1298;3013740;-69
2023/10/13 14:34:40;;;;;;;36.60;15.30;;;;;;;16.74;74.79;99735.43;78262;1297;3052327;-69
2023/10/13 14:37:07;;;;;;;31.90;14.30;;;;;;;16.82;74.31;99730.33;79323;1301;3014732;-71
2023/10/13 14:39:36;;;;;;;47.40;22.40;;;;;;;16.73;74.03;99730.71;79298;1296;3012979;-72
2023/10/13 14:42:07;;;;;;;41.80;17.70;;;;;;;16.50;74.35;99735.36;78164;1300;3049579;-74
2023/10/13 14:44:34;;;;;;;26.90;14.80;;;;;;;16.07;76.09;99747.09;79356;1297;3011780;-70
2023/10/13 14:47:05;;;;;;;32.60;16.10;;;;;;;15.71;78.06;99752.55;76385;1300;3056395;-63
2023/10/13 14:49:31;;;;;;;26.20;15.70;;;;;;;15.53;78.99;99762.96;79429;1298;3013290;-64
2023/10/13 14:51:59;;;;;;;22.20;11.20;;;;;;;15.24;81.16;99764.11;79418;1301;3012539;-71
2023/10/13 14:54:33;;;;;;;26.10;12.70;;;;;;;15.67;80.14;99766.47;78172;1300;3050533;-70
2023/10/13 14:57:01;;;;;;;23.60;13.40;;;;;;;16.09;78.52;99765.06;79321;1295;3013634;-67
2023/10/13 14:59:38;;;;;;;30.70;14.60;;;;;;;16.10;77.84;99761.95;78143;1301;3049285;-72
2023/10/13 15:02:06;;;;;;;30.80;14.70;;;;;;;16.07;77.52;99767.64;78349;1300;3052822;-69
2023/10/13 15:04:33;;;;;;;23.80;14.40;;;;;;;15.89;77.92;99767.10;79541;1295;3014654;-69
2023/10/13 15:07:03;;;;;;;31.20;16.00;;;;;;;15.67;78.98;99771.08;79420;1298;3013886;-70
2023/10/13 15:09:31;;;;;;;33.60;17.10;;;;;;;15.42;80.01;99773.15;78117;1298;3069066;-68
2023/10/13 15:11:58;;;;;;;21.90;12.10;;;;;;;15.30;80.71;99777.58;79633;1295;3013008;-72
2023/10/13 15:14:24;;;;;;;27.20;12.80;;;;;;;15.75;79.76;99776.95;79520;1296;3012061;-73
2023/10/13 15:16:52;;;;;;;27.50;15.10;;;;;;;16.36;77.51;99782.84;78568;1295;3026488;-71
2023/10/13 15:19:19;;;;;;;35.70;14.70;;;;;;;16.33;76.72;99779.89;79765;1301;3011704;-65
2023/10/13 15:21:54;;;;;;;30.60;15.00;;;;;;;16.06;77.21;99782.94;79761;1298;3013538;-73
2023/10/13 15:24:25;;;;;;;36.20;16.40;;;;;;;15.84;77.90;99790.40;78357;1295;3068344;-66
2023/10/13 15:26:57;;;;;;;35.10;16.20;;;;;;;15.60;78.96;99787.45;79627;1295;3011737;-68